sensor_id;sensor_type;location;lat;lon;timestamp;pressure;altitude;pressure_sealevel;temperature;humidity
60099;BME280;62818;49.394;8.686;2024-02-23T00:04:39;98314.00;;;8.68;100.00
60099;BME280;62818;49.394;8.686;2024-02-23T00:09:40;98328.06;;;8.62;100.00
60099;BME280;62818;49.394;8.686;2024-02-23T00:14:40;98336.25;;;8.54;100.00
60099;BME280;62818;49.394;8.686;2024-02-23T00:19:40;98343.59;;;8.52;100.00
60099;BME280;62818;49.394;8.686;2024-02-23T00:24:41;98356.16;;;8.57;100.00
60099;BME280;62818;49.394;8.686;2024-02-23T00:29:41;98337.53;;;8.45;100.00
60099;BME280;62818;49.394;8.686;2024-02-23T00:34:42;98339.56;;;8.43;100.00
60099;BME280;62818;49.394;8.686;2024-02-23T00:39:43;98373.09;;;8.36;100.00
60099;BME280;62818;49.394;8.686;2024-02-23T00:44:44;98387.94;;;8.24;100.00
60099;BME280;62818;49.394;8.686;2024-02-23T00:49:44;98379.38;;;8.35;100.00
60099;BME280;62818;49.394;8.686;2024-02-23T00:54:45;98381.47;;;8.20;100.00
60099;BME280;62818;49.394;8.686;2024-02-23T00:59:45;98375.38;;;8.13;100.00
60099;BME280;62818;49.394;8.686;2024-02-23T01:04:46;98359.44;;;8.52;100.00
60099;BME280;62818;49.394;8.686;2024-02-23T01:09:46;98383.53;;;8.11;100.00
60099;BME280;62818;49.394;8.686;2024-02-23T01:14:46;98400.97;;;8.19;100.00
60099;BME280;62818;49.394;8.686;2024-02-23T01:19:48;98405.06;;;8.08;100.00
60099;BME280;62818;49.394;8.686;2024-02-23T01:24:49;98400.19;;;8.05;100.00
60099;BME280;62818;49.394;8.686;2024-02-23T01:29:50;98389.84;;;8.04;100.00
60099;BME280;62818;49.394;8.686;2024-02-23T01:34:50;98414.25;;;7.80;100.00
60099;BME280;62818;49.394;8.686;2024-02-23T01:39:51;98430.25;;;7.85;100.00
60099;BME280;62818;49.394;8.686;2024-02-23T01:44:54;98430.66;;;7.95;100.00
60099;BME280;62818;49.394;8.686;2024-02-23T01:49:58;98434.09;;;7.89;100.00
60099;BME280;62818;49.394;8.686;2024-02-23T01:54:59;98449.94;;;7.89;100.00
60099;BME280;62818;49.394;8.686;2024-02-23T02:00:01;98453.81;;;7.93;100.00
60099;BME280;62818;49.394;8.686;2024-02-23T02:05:02;98479.16;;;7.81;100.00
60099;BME280;62818;49.394;8.686;2024-02-23T02:10:03;98491.94;;;7.84;100.00
60099;BME280;62818;49.394;8.686;2024-02-23T02:15:07;98509.31;;;6.59;100.00
60099;BME280;62818;49.394;8.686;2024-02-23T02:20:10;98507.84;;;6.50;100.00
60099;BME280;62818;49.394;8.686;2024-02-23T02:25:14;98509.03;;;6.41;100.00
60099;BME280;62818;49.394;8.686;2024-02-23T02:30:15;98520.00;;;6.51;100.00
60099;BME280;62818;49.394;8.686;2024-02-23T02:35:16;98509.53;;;6.64;100.00
60099;BME280;62818;49.394;8.686;2024-02-23T02:40:17;98509.94;;;6.67;100.00
60099;BME280;62818;49.394;8.686;2024-02-23T02:45:17;98509.94;;;6.67;100.00
60099;BME280;62818;49.394;8.686;2024-02-23T02:50:18;98510.34;;;6.64;100.00
60099;BME280;62818;49.394;8.686;2024-02-23T02:55:19;98503.28;;;7.38;100.00
60099;BME280;62818;49.394;8.686;2024-02-23T03:00:19;98479.06;;;6.89;100.00
60099;BME280;62818;49.394;8.686;2024-02-23T03:05:20;98505.09;;;6.64;100.00
60099;BME280;62818;49.394;8.686;2024-02-23T03:10:20;98478.94;;;7.43;100.00
60099;BME280;62818;49.394;8.686;2024-02-23T03:15:21;98497.38;;;7.23;100.00
60099;BME280;62818;49.394;8.686;2024-02-23T03:20:21;98484.16;;;7.10;100.00
60099;BME280;62818;49.394;8.686;2024-02-23T03:25:22;98486.84;;;7.23;100.00
60099;BME280;62818;49.394;8.686;2024-02-23T03:30:25;98501.66;;;7.31;100.00
60099;BME280;62818;49.394;8.686;2024-02-23T03:35:25;98495.59;;;7.76;100.00
60099;BME280;62818;49.394;8.686;2024-02-23T03:40:26;98495.19;;;7.46;100.00
60099;BME280;62818;49.394;8.686;2024-02-23T03:45:26;98493.34;;;7.40;100.00
60099;BME280;62818;49.394;8.686;2024-02-23T03:50:26;98498.81;;;7.39;100.00
60099;BME280;62818;49.394;8.686;2024-02-23T03:55:27;98504.50;;;7.49;100.00
60099;BME280;62818;49.394;8.686;2024-02-23T04:00:27;98490.69;;;7.40;100.00
60099;BME280;62818;49.394;8.686;2024-02-23T04:05:28;98493.94;;;7.36;100.00
60099;BME280;62818;49.394;8.686;2024-02-23T04:10:29;98511.78;;;7.40;100.00
60099;BME280;62818;49.394;8.686;2024-02-23T04:15:29;98527.19;;;7.30;100.00
60099;BME280;62818;49.394;8.686;2024-02-23T04:20:30;98543.81;;;7.24;100.00
60099;BME280;62818;49.394;8.686;2024-02-23T04:25:30;98547.44;;;7.23;100.00
60099;BME280;62818;49.394;8.686;2024-02-23T04:30:30;98549.66;;;7.20;100.00
60099;BME280;62818;49.394;8.686;2024-02-23T04:35:31;98554.72;;;7.21;100.00
60099;BME280;62818;49.394;8.686;2024-02-23T04:40:31;98553.09;;;7.20;100.00
60099;BME280;62818;49.394;8.686;2024-02-23T04:45:32;98555.94;;;7.25;100.00
60099;BME280;62818;49.394;8.686;2024-02-23T04:50:32;98552.28;;;7.13;100.00
60099;BME280;62818;49.394;8.686;2024-02-23T04:55:33;98539.09;;;7.13;100.00
60099;BME280;62818;49.394;8.686;2024-02-23T05:00:33;98538.03;;;7.01;100.00
60099;BME280;62818;49.394;8.686;2024-02-23T05:05:35;98545.34;;;6.99;100.00
60099;BME280;62818;49.394;8.686;2024-02-23T05:10:35;98553.22;;;6.99;100.00
60099;BME280;62818;49.394;8.686;2024-02-23T05:15:36;98548.78;;;7.00;100.00
60099;BME280;62818;49.394;8.686;2024-02-23T05:20:36;98567.16;;;6.87;100.00
60099;BME280;62818;49.394;8.686;2024-02-23T05:25:37;98571.19;;;6.76;100.00
60099;BME280;62818;49.394;8.686;2024-02-23T05:30:37;98575.69;;;6.89;100.00
60099;BME280;62818;49.394;8.686;2024-02-23T05:35:38;98581.72;;;6.76;100.00
60099;BME280;62818;49.394;8.686;2024-02-23T05:40:38;98585.75;;;6.79;100.00
60099;BME280;62818;49.394;8.686;2024-02-23T05:45:38;98591.31;;;6.56;100.00
60099;BME280;62818;49.394;8.686;2024-02-23T05:50:39;98587.91;;;6.62;100.00
60099;BME280;62818;49.394;8.686;2024-02-23T05:55:39;98597.56;;;6.89;100.00
60099;BME280;62818;49.394;8.686;2024-02-23T06:00:40;98605.94;;;6.65;100.00
60099;BME280;62818;49.394;8.686;2024-02-23T06:05:40;98609.66;;;6.77;100.00
60099;BME280;62818;49.394;8.686;2024-02-23T06:10:41;98606.16;;;6.70;100.00
60099;BME280;62818;49.394;8.686;2024-02-23T06:15:43;98603.19;;;6.80;100.00
60099;BME280;62818;49.394;8.686;2024-02-23T06:20:43;98606.69;;;6.59;100.00
60099;BME280;62818;49.394;8.686;2024-02-23T06:25:44;98612.78;;;6.59;100.00
60099;BME280;62818;49.394;8.686;2024-02-23T06:30:44;98622.72;;;6.30;100.00
60099;BME280;62818;49.394;8.686;2024-02-23T06:35:45;98609.78;;;6.35;100.00
60099;BME280;62818;49.394;8.686;2024-02-23T06:40:45;98618.50;;;6.35;100.00
60099;BME280;62818;49.394;8.686;2024-02-23T06:45:47;98616.44;;;6.31;100.00
60099;BME280;62818;49.394;8.686;2024-02-23T06:50:47;98600.53;;;6.39;100.00
60099;BME280;62818;49.394;8.686;2024-02-23T06:55:48;98603.78;;;6.20;100.00
60099;BME280;62818;49.394;8.686;2024-02-23T07:00:48;98608.06;;;6.21;100.00
60099;BME280;62818;49.394;8.686;2024-02-23T07:05:49;98608.34;;;6.05;100.00
60099;BME280;62818;49.394;8.686;2024-02-23T07:10:50;98617.03;;;6.05;100.00
60099;BME280;62818;49.394;8.686;2024-02-23T07:15:51;98623.28;;;6.04;100.00
60099;BME280;62818;49.394;8.686;2024-02-23T07:20:51;98626.59;;;6.13;100.00
60099;BME280;62818;49.394;8.686;2024-02-23T07:25:52;98631.50;;;6.16;100.00
60099;BME280;62818;49.394;8.686;2024-02-23T07:30:53;98641.84;;;6.45;100.00
60099;BME280;62818;49.394;8.686;2024-02-23T07:35:53;98640.38;;;6.15;100.00
60099;BME280;62818;49.394;8.686;2024-02-23T07:40:54;98646.91;;;6.46;100.00
60099;BME280;62818;49.394;8.686;2024-02-23T07:45:54;98634.84;;;6.31;100.00
60099;BME280;62818;49.394;8.686;2024-02-23T07:50:54;98649.50;;;6.40;100.00
60099;BME280;62818;49.394;8.686;2024-02-23T07:55:55;98656.38;;;6.68;100.00
60099;BME280;62818;49.394;8.686;2024-02-23T08:00:55;98663.09;;;7.53;100.00
60099;BME280;62818;49.394;8.686;2024-02-23T08:05:56;98654.94;;;8.47;100.00
60099;BME280;62818;49.394;8.686;2024-02-23T08:10:57;98659.16;;;8.09;100.00
60099;BME280;62818;49.394;8.686;2024-02-23T08:15:58;98652.31;;;8.47;100.00
60099;BME280;62818;49.394;8.686;2024-02-23T08:20:58;98659.19;;;8.55;100.00
60099;BME280;62818;49.394;8.686;2024-02-23T08:26:02;98660.44;;;8.52;100.00
60099;BME280;62818;49.394;8.686;2024-02-23T08:31:03;98641.72;;;7.95;100.00
60099;BME280;62818;49.394;8.686;2024-02-23T08:36:04;98648.19;;;8.84;100.00
60099;BME280;62818;49.394;8.686;2024-02-23T08:41:05;98646.63;;;8.70;100.00
60099;BME280;62818;49.394;8.686;2024-02-23T08:46:06;98639.69;;;8.16;100.00
60099;BME280;62818;49.394;8.686;2024-02-23T08:51:06;98627.09;;;8.64;100.00
60099;BME280;62818;49.394;8.686;2024-02-23T08:56:07;98624.66;;;9.33;100.00
60099;BME280;62818;49.394;8.686;2024-02-23T09:01:08;98618.06;;;9.05;100.00
60099;BME280;62818;49.394;8.686;2024-02-23T09:06:09;98613.09;;;8.44;100.00
60099;BME280;62818;49.394;8.686;2024-02-23T09:11:10;98623.31;;;9.18;100.00
60099;BME280;62818;49.394;8.686;2024-02-23T09:16:13;98609.19;;;8.79;100.00
60099;BME280;62818;49.394;8.686;2024-02-23T09:21:14;98617.94;;;8.73;100.00
60099;BME280;62818;49.394;8.686;2024-02-23T09:26:15;98610.41;;;8.77;100.00
60099;BME280;62818;49.394;8.686;2024-02-23T09:31:16;98602.44;;;9.41;100.00
60099;BME280;62818;49.394;8.686;2024-02-23T09:36:17;98613.38;;;9.57;95.52
60099;BME280;62818;49.394;8.686;2024-02-23T09:41:19;98603.72;;;10.75;92.13
60099;BME280;62818;49.394;8.686;2024-02-23T09:46:20;98614.28;;;10.57;89.50
60099;BME280;62818;49.394;8.686;2024-02-23T09:51:23;98604.13;;;10.54;90.21
60099;BME280;62818;49.394;8.686;2024-02-23T09:56:27;98602.63;;;11.18;87.14
60099;BME280;62818;49.394;8.686;2024-02-23T10:01:30;98602.53;;;11.25;86.68
60099;BME280;62818;49.394;8.686;2024-02-23T10:06:33;98603.00;;;10.86;87.73
60099;BME280;62818;49.394;8.686;2024-02-23T10:11:33;98603.16;;;11.86;82.37
60099;BME280;62818;49.394;8.686;2024-02-23T10:16:33;98615.06;;;11.00;85.15
60099;BME280;62818;49.394;8.686;2024-02-23T10:21:34;98619.34;;;11.97;81.76
60099;BME280;62818;49.394;8.686;2024-02-23T10:26:35;98614.16;;;12.02;82.21
60099;BME280;62818;49.394;8.686;2024-02-23T10:31:35;98637.88;;;11.37;81.34
60099;BME280;62818;49.394;8.686;2024-02-23T10:36:42;98623.25;;;11.64;84.06
60099;BME280;62818;49.394;8.686;2024-02-23T10:41:47;98627.44;;;11.24;85.32
60099;BME280;62818;49.394;8.686;2024-02-23T10:46:54;98627.47;;;10.38;83.49
60099;BME280;62818;49.394;8.686;2024-02-23T10:51:56;98619.50;;;11.72;83.46
60099;BME280;62818;49.394;8.686;2024-02-23T10:56:57;98638.00;;;10.70;85.27
60099;BME280;62818;49.394;8.686;2024-02-23T11:01:57;98622.88;;;10.27;85.73
60099;BME280;62818;49.394;8.686;2024-02-23T11:07:00;98608.19;;;10.56;86.22
60099;BME280;62818;49.394;8.686;2024-02-23T11:12:05;98603.59;;;10.45;86.36
60099;BME280;62818;49.394;8.686;2024-02-23T11:17:06;98594.81;;;9.95;87.98
60099;BME280;62818;49.394;8.686;2024-02-23T11:22:10;98588.81;;;10.06;88.14
60099;BME280;62818;49.394;8.686;2024-02-23T11:27:14;98593.78;;;9.96;87.26
60099;BME280;62818;49.394;8.686;2024-02-23T11:32:18;98576.38;;;10.07;88.52
60099;BME280;62818;49.394;8.686;2024-02-23T11:37:18;98569.16;;;10.99;85.95
60099;BME280;62818;49.394;8.686;2024-02-23T11:42:19;98581.56;;;9.95;87.41
60099;BME280;62818;49.394;8.686;2024-02-23T11:47:19;98572.53;;;9.78;88.47
60099;BME280;62818;49.394;8.686;2024-02-23T11:52:21;98577.47;;;9.99;86.54
60099;BME280;62818;49.394;8.686;2024-02-23T11:57:21;98591.28;;;10.01;89.54
60099;BME280;62818;49.394;8.686;2024-02-23T12:02:23;98571.75;;;10.02;89.01
60099;BME280;62818;49.394;8.686;2024-02-23T12:07:24;98576.53;;;9.87;88.72
60099;BME280;62818;49.394;8.686;2024-02-23T12:12:26;98570.50;;;9.49;90.77
60099;BME280;62818;49.394;8.686;2024-02-23T12:17:27;98563.84;;;9.96;90.96
60099;BME280;62818;49.394;8.686;2024-02-23T12:22:27;98564.84;;;9.70;90.04
60099;BME280;62818;49.394;8.686;2024-02-23T12:27:28;98562.72;;;9.54;89.66
60099;BME280;62818;49.394;8.686;2024-02-23T12:32:29;98566.03;;;9.74;89.51
60099;BME280;62818;49.394;8.686;2024-02-23T12:37:29;98553.44;;;9.69;90.14
60099;BME280;62818;49.394;8.686;2024-02-23T12:42:35;98567.94;;;9.92;91.86
60099;BME280;62818;49.394;8.686;2024-02-23T12:47:35;98574.06;;;9.92;92.50
60099;BME280;62818;49.394;8.686;2024-02-23T12:52:36;98564.50;;;9.91;95.04
60099;BME280;62818;49.394;8.686;2024-02-23T12:57:37;98567.22;;;9.85;94.41
60099;BME280;62818;49.394;8.686;2024-02-23T13:02:38;98567.56;;;9.88;94.18
60099;BME280;62818;49.394;8.686;2024-02-23T13:07:38;98560.50;;;10.07;92.98
60099;BME280;62818;49.394;8.686;2024-02-23T13:12:40;98552.47;;;10.63;89.96
60099;BME280;62818;49.394;8.686;2024-02-23T13:17:41;98555.91;;;10.99;89.38
60099;BME280;62818;49.394;8.686;2024-02-23T13:22:41;98558.91;;;10.30;90.82
60099;BME280;62818;49.394;8.686;2024-02-23T13:27:41;98557.56;;;10.21;89.58
60099;BME280;62818;49.394;8.686;2024-02-23T13:32:42;98557.53;;;10.46;87.76
60099;BME280;62818;49.394;8.686;2024-02-23T13:37:43;98545.91;;;10.47;88.98
60099;BME280;62818;49.394;8.686;2024-02-23T13:42:43;98541.84;;;10.44;88.46
60099;BME280;62818;49.394;8.686;2024-02-23T13:48:00;98546.09;;;10.27;85.81
60099;BME280;62818;49.394;8.686;2024-02-23T13:53:02;98529.78;;;10.30;87.52
60099;BME280;62818;49.394;8.686;2024-02-23T13:58:03;98534.50;;;11.01;85.01
60099;BME280;62818;49.394;8.686;2024-02-23T14:03:07;98542.53;;;10.94;83.02
60099;BME280;62818;49.394;8.686;2024-02-23T14:08:08;98514.63;;;10.74;84.90
60099;BME280;62818;49.394;8.686;2024-02-23T14:13:08;98509.97;;;10.15;85.94
60099;BME280;62818;49.394;8.686;2024-02-23T14:18:12;98490.63;;;10.14;86.64
60099;BME280;62818;49.394;8.686;2024-02-23T14:23:12;98495.19;;;10.25;87.17
60099;BME280;62818;49.394;8.686;2024-02-23T14:28:13;98487.84;;;10.27;87.57
60099;BME280;62818;49.394;8.686;2024-02-23T14:33:16;98479.59;;;10.17;88.83
60099;BME280;62818;49.394;8.686;2024-02-23T14:38:17;98482.38;;;10.22;86.76
60099;BME280;62818;49.394;8.686;2024-02-23T14:43:18;98480.28;;;10.49;85.14
60099;BME280;62818;49.394;8.686;2024-02-23T14:48:18;98484.47;;;10.38;85.55
60099;BME280;62818;49.394;8.686;2024-02-23T14:53:19;98480.16;;;10.44;84.31
60099;BME280;62818;49.394;8.686;2024-02-23T14:58:19;98478.06;;;11.53;79.51
60099;BME280;62818;49.394;8.686;2024-02-23T15:03:20;98481.75;;;11.11;77.85
60099;BME280;62818;49.394;8.686;2024-02-23T15:08:20;98490.13;;;10.42;82.31
60099;BME280;62818;49.394;8.686;2024-02-23T15:13:21;98487.34;;;10.55;84.18
60099;BME280;62818;49.394;8.686;2024-02-23T15:18:21;98493.00;;;10.40;85.53
60099;BME280;62818;49.394;8.686;2024-02-23T15:23:22;98487.97;;;10.14;86.66
60099;BME280;62818;49.394;8.686;2024-02-23T15:28:24;98488.97;;;10.20;87.28
60099;BME280;62818;49.394;8.686;2024-02-23T15:33:24;98478.66;;;10.05;88.79
60099;BME280;62818;49.394;8.686;2024-02-23T15:38:25;98470.72;;;10.30;89.65
60099;BME280;62818;49.394;8.686;2024-02-23T15:43:26;98471.59;;;10.24;88.63
60099;BME280;62818;49.394;8.686;2024-02-23T15:48:28;98466.00;;;10.07;87.47
60099;BME280;62818;49.394;8.686;2024-02-23T15:53:28;98467.91;;;10.00;88.71
60099;BME280;62818;49.394;8.686;2024-02-23T15:58:29;98471.88;;;10.16;92.58
60099;BME280;62818;49.394;8.686;2024-02-23T16:03:29;98473.72;;;9.66;97.13
60099;BME280;62818;49.394;8.686;2024-02-23T16:08:43;98465.19;;;9.64;98.92
60099;BME280;62818;49.394;8.686;2024-02-23T16:13:46;98475.00;;;9.57;100.00
60099;BME280;62818;49.394;8.686;2024-02-23T16:18:46;98462.31;;;9.65;100.00
60099;BME280;62818;49.394;8.686;2024-02-23T16:23:47;98468.44;;;9.66;100.00
60099;BME280;62818;49.394;8.686;2024-02-23T16:28:47;98464.63;;;9.31;100.00
60099;BME280;62818;49.394;8.686;2024-02-23T16:33:48;98458.22;;;9.14;100.00
60099;BME280;62818;49.394;8.686;2024-02-23T16:38:48;98454.22;;;9.05;100.00
60099;BME280;62818;49.394;8.686;2024-02-23T16:43:49;98462.97;;;9.05;100.00
60099;BME280;62818;49.394;8.686;2024-02-23T16:48:49;98456.22;;;9.09;100.00
60099;BME280;62818;49.394;8.686;2024-02-23T16:53:50;98460.44;;;8.85;100.00
60099;BME280;62818;49.394;8.686;2024-02-23T16:58:50;98447.22;;;8.85;100.00
60099;BME280;62818;49.394;8.686;2024-02-23T17:03:51;98454.94;;;8.87;100.00
60099;BME280;62818;49.394;8.686;2024-02-23T17:08:51;98448.88;;;8.80;100.00
60099;BME280;62818;49.394;8.686;2024-02-23T17:13:52;98448.19;;;8.91;100.00
60099;BME280;62818;49.394;8.686;2024-02-23T17:18:55;98457.41;;;8.75;100.00
60099;BME280;62818;49.394;8.686;2024-02-23T17:23:56;98452.78;;;8.64;100.00
60099;BME280;62818;49.394;8.686;2024-02-23T17:28:56;98451.19;;;8.63;100.00
60099;BME280;62818;49.394;8.686;2024-02-23T17:33:57;98451.63;;;8.54;100.00
60099;BME280;62818;49.394;8.686;2024-02-23T17:38:57;98462.22;;;8.47;100.00
60099;BME280;62818;49.394;8.686;2024-02-23T17:43:57;98465.84;;;8.46;100.00
60099;BME280;62818;49.394;8.686;2024-02-23T17:48:58;98476.84;;;8.43;100.00
60099;BME280;62818;49.394;8.686;2024-02-23T17:53:58;98481.34;;;8.36;100.00
60099;BME280;62818;49.394;8.686;2024-02-23T17:58:59;98465.72;;;8.28;100.00
60099;BME280;62818;49.394;8.686;2024-02-23T18:03:59;98484.19;;;8.21;100.00
60099;BME280;62818;49.394;8.686;2024-02-23T18:09:00;98480.97;;;8.26;100.00
60099;BME280;62818;49.394;8.686;2024-02-23T18:14:00;98491.53;;;8.26;100.00
60099;BME280;62818;49.394;8.686;2024-02-23T18:19:01;98498.19;;;8.15;100.00
60099;BME280;62818;49.394;8.686;2024-02-23T18:24:04;98505.31;;;8.15;100.00
60099;BME280;62818;49.394;8.686;2024-02-23T18:29:06;98501.88;;;7.95;100.00
60099;BME280;62818;49.394;8.686;2024-02-23T18:34:06;98497.00;;;7.98;100.00
60099;BME280;62818;49.394;8.686;2024-02-23T18:39:07;98486.06;;;7.82;100.00
60099;BME280;62818;49.394;8.686;2024-02-23T18:44:12;98506.97;;;7.77;100.00
60099;BME280;62818;49.394;8.686;2024-02-23T18:49:13;98512.22;;;7.77;100.00
60099;BME280;62818;49.394;8.686;2024-02-23T18:54:13;98513.22;;;7.76;100.00
60099;BME280;62818;49.394;8.686;2024-02-23T18:59:14;98505.31;;;7.76;100.00
60099;BME280;62818;49.394;8.686;2024-02-23T19:04:14;98512.44;;;7.95;100.00
60099;BME280;62818;49.394;8.686;2024-02-23T19:09:14;98516.28;;;7.99;100.00
60099;BME280;62818;49.394;8.686;2024-02-23T19:14:16;98512.63;;;8.00;100.00
60099;BME280;62818;49.394;8.686;2024-02-23T19:19:16;98505.50;;;8.13;100.00
60099;BME280;62818;49.394;8.686;2024-02-23T19:24:17;98507.34;;;8.00;100.00
60099;BME280;62818;49.394;8.686;2024-02-23T19:29:17;98502.28;;;7.98;100.00
60099;BME280;62818;49.394;8.686;2024-02-23T19:34:18;98507.31;;;8.13;100.00
60099;BME280;62818;49.394;8.686;2024-02-23T19:39:18;98502.06;;;8.00;100.00
60099;BME280;62818;49.394;8.686;2024-02-23T19:44:18;98492.34;;;7.94;100.00
60099;BME280;62818;49.394;8.686;2024-02-23T19:49:19;98508.19;;;7.74;100.00
60099;BME280;62818;49.394;8.686;2024-02-23T19:54:19;98488.88;;;7.80;100.00
60099;BME280;62818;49.394;8.686;2024-02-23T19:59:20;98490.72;;;7.67;100.00
60099;BME280;62818;49.394;8.686;2024-02-23T20:04:20;98490.53;;;7.48;100.00
60099;BME280;62818;49.394;8.686;2024-02-23T20:09:21;98495.19;;;7.73;100.00
60099;BME280;62818;49.394;8.686;2024-02-23T20:14:21;98500.47;;;7.99;100.00
60099;BME280;62818;49.394;8.686;2024-02-23T20:19:22;98503.06;;;8.12;100.00
60099;BME280;62818;49.394;8.686;2024-02-23T20:24:22;98498.81;;;8.04;100.00
60099;BME280;62818;49.394;8.686;2024-02-23T20:29:25;98500.47;;;7.99;100.00
60099;BME280;62818;49.394;8.686;2024-02-23T20:34:26;98502.50;;;7.97;100.00
60099;BME280;62818;49.394;8.686;2024-02-23T20:39:27;98503.09;;;7.92;100.00
60099;BME280;62818;49.394;8.686;2024-02-23T20:44:27;98500.06;;;8.08;100.00
60099;BME280;62818;49.394;8.686;2024-02-23T20:49:27;98502.50;;;8.03;100.00
60099;BME280;62818;49.394;8.686;2024-02-23T20:54:30;98506.13;;;8.02;100.00
60099;BME280;62818;49.394;8.686;2024-02-23T20:59:31;98494.78;;;8.28;100.00
60099;BME280;62818;49.394;8.686;2024-02-23T21:04:32;98512.81;;;8.05;100.00
60099;BME280;62818;49.394;8.686;2024-02-23T21:09:32;98514.25;;;8.01;100.00
60099;BME280;62818;49.394;8.686;2024-02-23T21:14:33;98510.59;;;8.02;100.00
60099;BME280;62818;49.394;8.686;2024-02-23T21:19:33;98512.22;;;8.03;100.00
60099;BME280;62818;49.394;8.686;2024-02-23T21:24:34;98512.22;;;7.83;100.00
60099;BME280;62818;49.394;8.686;2024-02-23T21:29:35;98505.53;;;7.81;100.00
60099;BME280;62818;49.394;8.686;2024-02-23T21:34:35;98502.28;;;7.79;100.00
60099;BME280;62818;49.394;8.686;2024-02-23T21:39:39;98505.13;;;7.97;100.00
60099;BME280;62818;49.394;8.686;2024-02-23T21:44:39;98514.66;;;7.85;100.00
60099;BME280;62818;49.394;8.686;2024-02-23T21:49:40;98514.25;;;8.01;100.00
60099;BME280;62818;49.394;8.686;2024-02-23T21:54:41;98517.50;;;7.77;100.00
60099;BME280;62818;49.394;8.686;2024-02-23T21:59:41;98515.09;;;7.69;100.00
60099;BME280;62818;49.394;8.686;2024-02-23T22:04:42;98514.25;;;8.01;100.00
60099;BME280;62818;49.394;8.686;2024-02-23T22:09:43;98526.25;;;7.90;100.00
60099;BME280;62818;49.394;8.686;2024-02-23T22:14:45;98529.69;;;7.91;100.00
60099;BME280;62818;49.394;8.686;2024-02-23T22:19:45;98526.84;;;7.99;100.00
60099;BME280;62818;49.394;8.686;2024-02-23T22:24:46;98532.94;;;8.06;100.00
60099;BME280;62818;49.394;8.686;2024-02-23T22:29:46;98527.84;;;7.98;100.00
60099;BME280;62818;49.394;8.686;2024-02-23T22:34:47;98524.81;;;8.07;100.00
60099;BME280;62818;49.394;8.686;2024-02-23T22:39:48;98531.28;;;8.31;100.00
60099;BME280;62818;49.394;8.686;2024-02-23T22:44:49;98534.53;;;8.00;100.00
60099;BME280;62818;49.394;8.686;2024-02-23T22:49:49;98544.28;;;7.87;100.00
60099;BME280;62818;49.394;8.686;2024-02-23T22:54:50;98534.97;;;7.97;100.00
60099;BME280;62818;49.394;8.686;2024-02-23T22:59:50;98540.03;;;7.79;100.00
60099;BME280;62818;49.394;8.686;2024-02-23T23:04:51;98553.22;;;7.99;100.00
60099;BME280;62818;49.394;8.686;2024-02-23T23:09:51;98568.22;;;8.05;100.00
60099;BME280;62818;49.394;8.686;2024-02-23T23:14:52;98570.03;;;7.72;100.00
60099;BME280;62818;49.394;8.686;2024-02-23T23:19:52;98564.34;;;7.62;100.00
60099;BME280;62818;49.394;8.686;2024-02-23T23:24:53;98575.50;;;7.64;100.00
60099;BME280;62818;49.394;8.686;2024-02-23T23:29:53;98566.16;;;7.55;100.00
60099;BME280;62818;49.394;8.686;2024-02-23T23:34:54;98561.69;;;7.48;100.00
60099;BME280;62818;49.394;8.686;2024-02-23T23:39:55;98558.84;;;7.43;100.00
60099;BME280;62818;49.394;8.686;2024-02-23T23:44:55;98564.31;;;7.35;100.00
60099;BME280;62818;49.394;8.686;2024-02-23T23:49:56;98576.00;;;7.13;100.00
60099;BME280;62818;49.394;8.686;2024-02-23T23:54:56;98580.84;;;7.16;100.00
60099;BME280;62818;49.394;8.686;2024-02-23T23:59:57;98578.06;;;7.31;100.00
